EGPU

Tiree Airport

Balemartine, United Kingdom
METAR EGPU 121020Z 14027KT 4700 RADZ BKN004 09/09 Q1013
Observed Flight Rules
Dec-12 @ 10:20 UTC (35 minutes ago) Instrument Flight Rules
Wind Visibility Clouds Conditions
140° at 27 knots 4,699 meters
  • Broken at 400' AGL
  • Rain
  • Drizzle
Temperatures Readings
Current 9°C / 48°F
Dewpoint 9°C / 48°F
Humidity 100%
Altimeter 29.91" Hg
Pressure 1013 hPa
Elevation 12
METAR EGPU 121020Z 14027KT 4700 RADZ BKN004 09/09 Q1013
Observed Flight Rules
Dec-12 @ 10:20 UTC
(35 minutes ago)
LIFR
Wind Visibility
140° at 27 knots 4,699 meters
Clouds
  • Broken at 400' AGL
Conditions
  • Rain
  • Drizzle
Temperature Dewpoint
9°C / 48°F 9°C / 48°F
Humidity Altimeter Pressure
100% 29.91" Hg 1013 hPa